Hauptseite
METAR-TAF:

METAR-TAF

Flughäfen :

Deauville, Frankreich

Flughafen Deauville

Breite: 49-21-55N, Länge: 000-09-16E, Höhe: 146 m

METAR: fehlend

Zeit: 01:18 (00:18 UTC)

Prognose

Neuester Wetterbericht von vor 16 Stunden und 18 Minuten, um 08:00 UTC
Gültige Prognose vom 19 um 09 UTC bis 19 um 18 UTC
Wind 3 kt aus unterschiedlichen Richtungen
Sichtweite 10 km oder mehr
Durchbrochene Bewölkung in der Höhe von 2000 ft

TAF: LFRG 190800Z 1909/1918 VRB03KT 9999 BKN020

Wetterbeobachtungen und Prognosen von mehr als 4000 Flughäfen (METAR und TAF Bericht).

Die verfügbaren Stationen werden durch gelbe und rote Markierungen auf der Karte dargestellt.

Führen Sie die Maus auf sie, um den Namen der Station zu sehen.

Darauf klicken, um die Beobachtung von Wetterbeobachtungen und Prognosen zu sehen.

Um die Karte zu ändern : klicken Sie auf den grünen Tasten mit einem schwarzen Kreuz Zum Vergrößern, auf den grünen Button mit einem Gedankenstrich zu verkleinern, oder auf die grünen Pfeile für benachbarte Karten.


METAR-TAF: